createdAt,value
2022-09-28T00:01:28.219Z,8.30
2022-09-28T00:03:59.903Z,8.30
2022-09-28T00:06:30.646Z,8.20
2022-09-28T00:08:59.533Z,8.30
2022-09-28T00:11:29.297Z,8.20
2022-09-28T00:14:03.558Z,8.30
2022-09-28T00:16:34.536Z,8.20
2022-09-28T00:19:06.771Z,8.30
2022-09-28T00:21:37.204Z,8.30
2022-09-28T00:24:15.861Z,8.30
2022-09-28T00:26:47.542Z,8.30
2022-09-28T00:29:26.720Z,8.30
2022-09-28T00:31:59.939Z,8.20
2022-09-28T00:34:32.526Z,8.20
2022-09-28T00:37:02.587Z,8.10
2022-09-28T00:39:31.936Z,8.20
2022-09-28T00:42:01.017Z,8.10
2022-09-28T00:44:51.358Z,8.20
2022-09-28T00:47:53.694Z,8.20
2022-09-28T00:50:28.625Z,8.20
2022-09-28T00:53:01.159Z,8.20
2022-09-28T00:55:35.949Z,8.10
2022-09-28T00:58:06.768Z,8.10
2022-09-28T01:00:35.578Z,8.10
2022-09-28T01:03:05.264Z,8.20
2022-09-28T01:05:35.834Z,8.20
2022-09-28T01:08:05.870Z,8.30
2022-09-28T01:10:35.417Z,8.30
2022-09-28T01:13:03.891Z,8.30
2022-09-28T01:15:44.527Z,8.30
2022-09-28T01:18:19.061Z,8.30
2022-09-28T01:21:10.557Z,8.30
2022-09-28T01:23:59.908Z,8.30
2022-09-28T01:26:53.969Z,8.30
2022-09-28T01:29:37.050Z,8.30
2022-09-28T01:32:16.446Z,8.30
2022-09-28T01:34:54.429Z,8.30
2022-09-28T01:37:27.894Z,8.30
2022-09-28T01:39:59.760Z,8.30
2022-09-28T01:42:33.813Z,8.30
2022-09-28T01:45:08.356Z,8.30
2022-09-28T01:47:41.356Z,8.30
2022-09-28T01:50:13.342Z,8.30
2022-09-28T01:52:48.004Z,8.30
2022-09-28T01:55:25.114Z,8.30
2022-09-28T01:57:59.590Z,8.30
2022-09-28T02:00:29.113Z,8.30
2022-09-28T02:03:04.047Z,8.20
2022-09-28T02:05:35.711Z,8.20
2022-09-28T02:08:08.360Z,8.10
2022-09-28T02:10:42.720Z,8.20
2022-09-28T02:13:17.425Z,8.20
2022-09-28T02:15:51.656Z,8.20
2022-09-28T02:18:20.305Z,8.20
2022-09-28T02:20:54.307Z,8.20
2022-09-28T02:23:25.262Z,8.20
2022-09-28T02:26:02.174Z,8.20
2022-09-28T02:28:32.478Z,8.20
2022-09-28T02:31:01.858Z,8.20
2022-09-28T02:33:35.449Z,8.30
2022-09-28T02:36:04.842Z,8.30
2022-09-28T02:38:33.762Z,8.30
2022-09-28T02:41:06.951Z,8.30
2022-09-28T02:43:47.616Z,8.20
2022-09-28T02:46:28.452Z,8.30
2022-09-28T02:49:22.044Z,8.30
2022-09-28T02:52:05.674Z,8.30
2022-09-28T02:55:03.237Z,8.30
2022-09-28T02:57:44.794Z,8.30
2022-09-28T03:00:19.094Z,8.40
2022-09-28T03:02:58.588Z,8.40
2022-09-28T03:05:34.332Z,8.40
2022-09-28T03:08:07.974Z,8.40
2022-09-28T03:10:41.118Z,8.40
2022-09-28T03:13:10.578Z,8.50
2022-09-28T03:15:46.466Z,8.40
2022-09-28T03:18:17.500Z,8.40
2022-09-28T03:20:46.020Z,8.30
2022-09-28T03:23:29.942Z,8.30
2022-09-28T03:25:58.573Z,8.30
2022-09-28T03:28:28.075Z,8.30
2022-09-28T03:30:58.453Z,8.40
2022-09-28T03:33:26.871Z,8.40
2022-09-28T03:35:55.486Z,8.40
2022-09-28T03:38:24.016Z,8.40
2022-09-28T03:40:56.768Z,8.40
2022-09-28T03:43:26.410Z,8.40
2022-09-28T03:45:55.729Z,8.40
2022-09-28T03:48:31.851Z,8.40
2022-09-28T03:51:02.734Z,8.30
2022-09-28T03:53:31.423Z,8.30
2022-09-28T03:56:04.673Z,8.30
2022-09-28T03:58:33.892Z,8.20
2022-09-28T04:01:07.016Z,8.30
2022-09-28T04:03:37.177Z,8.30
2022-09-28T04:06:06.484Z,8.20
2022-09-28T04:08:35.073Z,8.20
2022-09-28T04:11:03.794Z,8.20
2022-09-28T04:13:32.524Z,8.30
2022-09-28T04:16:02.427Z,8.30
2022-09-28T04:18:31.679Z,8.30
2022-09-28T04:21:06.799Z,8.30
2022-09-28T04:23:36.446Z,8.30
2022-09-28T04:26:05.789Z,8.30
2022-09-28T04:28:52.123Z,8.30
2022-09-28T04:31:23.744Z,8.30
2022-09-28T04:33:52.342Z,8.40
2022-09-28T04:36:22.522Z,8.40
2022-09-28T04:38:53.509Z,8.40
2022-09-28T04:41:22.969Z,8.40
2022-09-28T04:43:51.869Z,8.30
2022-09-28T04:46:23.406Z,8.30
2022-09-28T04:48:51.959Z,8.30
2022-09-28T04:51:22.394Z,8.30
2022-09-28T04:53:50.965Z,8.30
2022-09-28T04:56:20.471Z,8.30
2022-09-28T04:58:52.600Z,8.30
2022-09-28T05:01:23.866Z,8.40
2022-09-28T05:03:52.544Z,8.40
2022-09-28T05:06:23.064Z,8.40
2022-09-28T05:08:52.036Z,8.50
2022-09-28T05:11:21.774Z,8.40
2022-09-28T05:13:50.798Z,8.40
2022-09-28T05:16:20.589Z,8.50
2022-09-28T05:18:49.154Z,8.40
2022-09-28T05:21:20.222Z,8.40
2022-09-28T05:23:50.164Z,8.50
2022-09-28T05:26:18.790Z,8.50
2022-09-28T05:28:47.355Z,8.40
2022-09-28T05:31:16.330Z,8.40
2022-09-28T05:33:45.132Z,8.40
2022-09-28T05:36:13.729Z,8.40
2022-09-28T05:38:42.171Z,8.40
2022-09-28T05:41:12.394Z,8.30
2022-09-28T05:43:41.035Z,8.30
2022-09-28T05:46:09.512Z,8.30
2022-09-28T05:48:37.938Z,8.30
2022-09-28T05:51:06.814Z,8.30
2022-09-28T05:53:35.267Z,8.30
2022-09-28T05:56:03.863Z,8.30
2022-09-28T05:58:33.920Z,8.30
2022-09-28T06:01:02.506Z,8.40
2022-09-28T06:03:31.363Z,8.40
2022-09-28T06:06:02.686Z,8.40
2022-09-28T06:08:32.963Z,8.40
2022-09-28T06:11:02.495Z,8.40
2022-09-28T06:13:32.192Z,8.50
2022-09-28T06:16:04.932Z,8.50
2022-09-28T06:18:33.760Z,8.60
2022-09-28T06:21:02.780Z,8.60
2022-09-28T06:23:31.258Z,8.60
2022-09-28T06:26:00.919Z,8.60
2022-09-28T06:28:30.146Z,8.60
2022-09-28T06:31:02.538Z,8.70
2022-09-28T06:33:31.061Z,8.80
2022-09-28T06:36:01.073Z,8.70
2022-09-28T06:38:29.732Z,8.80
2022-09-28T06:40:59.056Z,8.70
2022-09-28T06:43:32.150Z,8.70
2022-09-28T06:46:04.378Z,8.80
2022-09-28T06:48:33.608Z,8.70
2022-09-28T06:51:03.179Z,8.70
2022-09-28T06:53:31.822Z,8.70
2022-09-28T06:56:01.415Z,8.80
2022-09-28T06:58:30.413Z,8.80
2022-09-28T07:01:00.424Z,8.80
2022-09-28T07:03:30.470Z,8.80
2022-09-28T07:05:59.307Z,8.70
2022-09-28T07:08:28.963Z,8.70
2022-09-28T07:10:57.554Z,8.80
2022-09-28T07:13:48.930Z,8.80
2022-09-28T07:16:17.452Z,8.80
2022-09-28T07:18:47.949Z,8.80
2022-09-28T07:21:27.968Z,8.90
2022-09-28T07:23:58.010Z,8.90
2022-09-28T07:26:27.036Z,9.00
2022-09-28T07:28:56.119Z,9.00
2022-09-28T07:31:26.493Z,9.00
2022-09-28T07:33:56.621Z,9.00
2022-09-28T07:36:25.681Z,8.90
2022-09-28T07:38:54.247Z,8.90
2022-09-28T07:41:32.404Z,8.90
2022-09-28T07:44:06.346Z,9.00
2022-09-28T07:46:35.549Z,9.10
2022-09-28T07:49:08.476Z,9.20
2022-09-28T07:51:40.732Z,9.20
2022-09-28T07:54:09.378Z,9.30
2022-09-28T07:56:37.936Z,9.30
2022-09-28T07:59:06.879Z,9.30
2022-09-28T08:01:35.748Z,9.40
2022-09-28T08:04:06.384Z,9.40
2022-09-28T08:06:34.979Z,9.40
2022-09-28T08:09:03.588Z,9.40
2022-09-28T08:11:32.063Z,9.40
2022-09-28T08:14:02.133Z,9.40
2022-09-28T08:16:32.644Z,9.40
2022-09-28T08:19:01.169Z,9.40
2022-09-28T08:21:48.157Z,9.50
2022-09-28T08:24:19.312Z,9.50
2022-09-28T08:26:48.640Z,9.60
2022-09-28T08:29:17.172Z,9.60
2022-09-28T08:31:48.966Z,9.70
2022-09-28T08:34:17.675Z,9.70
2022-09-28T08:36:48.056Z,9.70
2022-09-28T08:39:16.660Z,9.80
2022-09-28T08:41:50.720Z,9.80
2022-09-28T08:44:25.208Z,9.80
2022-09-28T08:46:57.850Z,9.80
2022-09-28T08:49:31.605Z,9.80
2022-09-28T08:52:04.807Z,9.80
2022-09-28T08:54:40.185Z,9.80
2022-09-28T08:57:13.876Z,9.90
2022-09-28T08:59:55.450Z,10.10
2022-09-28T09:02:27.233Z,10.20
2022-09-28T09:04:57.644Z,10.30
2022-09-28T09:07:59.159Z,10.30
2022-09-28T09:10:45.750Z,10.30
2022-09-28T09:13:34.865Z,10.20
2022-09-28T09:16:12.859Z,10.30
2022-09-28T09:18:48.877Z,10.40
2022-09-28T09:21:35.377Z,10.40
2022-09-28T09:24:18.051Z,10.40
2022-09-28T09:26:48.057Z,10.40
2022-09-28T09:29:31.568Z,10.40
2022-09-28T09:32:27.841Z,10.40
2022-09-28T09:35:27.638Z,10.40
2022-09-28T09:38:22.817Z,10.40
2022-09-28T09:41:03.483Z,10.30
2022-09-28T09:43:58.918Z,10.40
2022-09-28T09:46:36.365Z,10.40
2022-09-28T09:49:11.587Z,10.40
2022-09-28T09:51:45.461Z,10.50
2022-09-28T09:54:24.133Z,10.50
2022-09-28T09:56:59.918Z,10.60
2022-09-28T09:59:33.969Z,10.60
2022-09-28T10:02:05.431Z,10.60
2022-09-28T10:04:40.910Z,10.70
2022-09-28T10:07:17.716Z,10.70
2022-09-28T10:09:47.849Z,10.80
2022-09-28T10:12:22.070Z,10.80
2022-09-28T10:14:51.001Z,10.90
2022-09-28T10:17:27.160Z,10.80
2022-09-28T10:19:57.304Z,10.70
2022-09-28T10:22:28.725Z,10.80
2022-09-28T10:24:59.437Z,10.80
2022-09-28T10:27:31.931Z,10.90
2022-09-28T10:30:04.447Z,10.90
2022-09-28T10:32:39.810Z,10.90
2022-09-28T10:35:27.197Z,11.00
2022-09-28T10:38:04.644Z,11.00
2022-09-28T10:40:43.831Z,11.10
2022-09-28T10:43:23.722Z,11.20
2022-09-28T10:46:03.066Z,11.30
2022-09-28T10:48:39.958Z,11.40
2022-09-28T10:51:10.432Z,11.40
2022-09-28T10:53:41.819Z,11.40
2022-09-28T10:56:28.503Z,11.30
2022-09-28T10:59:00.102Z,11.30
2022-09-28T11:01:34.940Z,11.30
2022-09-28T11:04:06.933Z,11.30
2022-09-28T11:06:39.826Z,11.30
2022-09-28T11:09:30.507Z,11.30
2022-09-28T11:12:00.897Z,11.30
2022-09-28T11:14:41.308Z,11.40
2022-09-28T11:17:19.564Z,11.60
2022-09-28T11:19:48.120Z,11.60
2022-09-28T11:22:30.439Z,11.70
2022-09-28T11:25:24.553Z,11.70
2022-09-28T11:28:04.937Z,11.90
2022-09-28T11:30:40.727Z,12.00
2022-09-28T11:33:19.362Z,12.20
2022-09-28T11:35:53.252Z,12.30
2022-09-28T11:38:35.166Z,12.30
2022-09-28T11:41:30.019Z,12.30
2022-09-28T11:44:19.092Z,12.40
2022-09-28T11:47:02.029Z,12.40
2022-09-28T11:49:36.258Z,12.40
2022-09-28T11:52:15.330Z,12.50
2022-09-28T11:54:49.511Z,12.50
2022-09-28T11:57:22.324Z,12.40
2022-09-28T11:59:59.247Z,12.50
2022-09-28T12:02:35.206Z,12.60
2022-09-28T12:05:19.883Z,12.60
2022-09-28T12:07:52.659Z,12.70
2022-09-28T12:10:31.526Z,12.80
2022-09-28T12:13:05.286Z,12.90
2022-09-28T12:16:11.569Z,12.90
2022-09-28T12:18:43.145Z,12.90
2022-09-28T12:21:37.921Z,12.90
2022-09-28T12:24:16.139Z,13.00
2022-09-28T12:26:53.634Z,13.10
2022-09-28T12:29:26.702Z,13.10
2022-09-28T12:32:04.752Z,13.10
2022-09-28T12:34:34.845Z,13.10
2022-09-28T12:37:15.992Z,13.20
2022-09-28T12:40:00.294Z,13.20
2022-09-28T12:42:47.520Z,13.10
2022-09-28T12:45:28.570Z,13.00
2022-09-28T12:48:36.594Z,12.90
2022-09-28T12:51:16.771Z,12.80
2022-09-28T12:54:01.836Z,12.60
2022-09-28T12:56:36.568Z,12.30
2022-09-28T12:59:18.728Z,12.10
2022-09-28T13:02:12.938Z,12.10
2022-09-28T13:05:11.280Z,12.10
2022-09-28T13:07:49.939Z,12.10
2022-09-28T13:13:37.622Z,12.10
2022-09-28T13:16:17.838Z,12.20
2022-09-28T13:18:54.352Z,12.20
2022-09-28T13:21:30.314Z,12.20
2022-09-28T13:24:20.728Z,12.30
2022-09-28T13:26:55.295Z,12.50
2022-09-28T13:29:27.122Z,12.60
2022-09-28T13:31:58.557Z,12.70
2022-09-28T13:34:29.519Z,12.90
2022-09-28T13:37:21.873Z,12.80
2022-09-28T13:39:56.743Z,12.80
2022-09-28T13:43:00.414Z,12.70
2022-09-28T13:45:42.769Z,12.50
2022-09-28T13:48:21.704Z,12.60
2022-09-28T13:51:12.733Z,12.60
2022-09-28T13:54:13.934Z,12.60
2022-09-28T13:56:55.342Z,12.60
2022-09-28T13:59:27.991Z,12.60
2022-09-28T14:02:06.870Z,12.60
2022-09-28T14:04:57.591Z,12.70
2022-09-28T14:10:21.203Z,12.50
2022-09-28T14:12:53.124Z,12.50
2022-09-28T14:15:44.668Z,12.50
2022-09-28T14:18:29.256Z,12.60
2022-09-28T14:21:24.133Z,12.60
2022-09-28T14:24:06.191Z,12.70
2022-09-28T14:27:06.763Z,12.70
2022-09-28T14:29:38.400Z,12.80
2022-09-28T14:32:23.126Z,12.90
2022-09-28T14:34:59.598Z,13.00
2022-09-28T14:37:48.757Z,13.10
2022-09-28T14:40:39.720Z,13.10
2022-09-28T14:43:36.461Z,13.10
2022-09-28T14:46:35.661Z,13.20
2022-09-28T14:49:06.991Z,13.20
2022-09-28T14:51:58.661Z,13.30
2022-09-28T14:54:29.956Z,13.30
2022-09-28T14:57:09.635Z,13.40
2022-09-28T14:59:43.759Z,13.60
2022-09-28T15:02:21.502Z,13.60
2022-09-28T15:04:53.514Z,13.80
2022-09-28T15:07:24.780Z,13.80
2022-09-28T15:09:55.041Z,13.80
2022-09-28T15:12:27.142Z,13.60
2022-09-28T15:15:02.795Z,13.50
2022-09-28T15:17:39.529Z,13.40
2022-09-28T15:20:25.908Z,13.30
2022-09-28T15:22:57.820Z,13.30
2022-09-28T15:25:28.879Z,13.20
2022-09-28T15:27:59.607Z,13.10
2022-09-28T15:30:30.296Z,13.10
2022-09-28T15:33:16.452Z,13.10
2022-09-28T15:35:49.343Z,13.00
2022-09-28T15:38:18.685Z,13.00
2022-09-28T15:40:48.284Z,13.00
2022-09-28T15:43:27.313Z,12.90
2022-09-28T15:46:03.034Z,12.90
2022-09-28T15:48:40.849Z,12.90
2022-09-28T15:51:11.971Z,12.90
2022-09-28T15:53:48.007Z,12.90
2022-09-28T15:56:16.583Z,12.80
2022-09-28T15:58:45.284Z,12.80
2022-09-28T16:01:38.113Z,12.80
2022-09-28T16:04:40.371Z,12.80
2022-09-28T16:07:29.031Z,12.70
2022-09-28T16:10:00.467Z,12.60
2022-09-28T16:12:36.415Z,12.60
2022-09-28T16:15:08.245Z,12.60
2022-09-28T16:17:38.636Z,12.60
2022-09-28T16:20:23.987Z,12.60
2022-09-28T16:22:53.894Z,12.60
2022-09-28T16:25:25.538Z,12.60
2022-09-28T16:27:56.421Z,12.60
2022-09-28T16:30:27.347Z,12.50
2022-09-28T16:32:58.048Z,12.50
2022-09-28T16:35:32.206Z,12.50
2022-09-28T16:38:10.721Z,12.40
2022-09-28T16:40:44.377Z,12.40
2022-09-28T16:43:20.980Z,12.40
2022-09-28T16:45:50.491Z,12.30
2022-09-28T16:48:28.665Z,12.20
2022-09-28T16:50:59.296Z,12.20
2022-09-28T16:53:45.923Z,12.20
2022-09-28T16:56:14.905Z,12.20
2022-09-28T16:58:44.368Z,12.20
2022-09-28T17:01:15.234Z,12.10
2022-09-28T17:03:47.049Z,12.10
2022-09-28T17:06:18.722Z,12.00
2022-09-28T17:08:47.890Z,12.10
2022-09-28T17:11:23.648Z,12.00
2022-09-28T17:13:56.900Z,12.00
2022-09-28T17:17:06.085Z,12.00
2022-09-28T17:19:22.232Z,12.00
2022-09-28T17:21:54.016Z,12.00
2022-09-28T17:24:22.959Z,12.00
2022-09-28T17:26:53.205Z,11.90
2022-09-28T17:29:25.377Z,11.90
2022-09-28T17:31:54.615Z,11.90
2022-09-28T17:34:23.962Z,11.80
2022-09-28T17:36:54.525Z,11.80
2022-09-28T17:39:25.122Z,11.80
2022-09-28T17:41:54.063Z,11.70
2022-09-28T17:44:22.910Z,11.70
2022-09-28T17:46:52.544Z,11.60
2022-09-28T17:49:21.471Z,11.60
2022-09-28T17:51:53.023Z,11.50
2022-09-28T17:54:23.462Z,11.50
2022-09-28T17:56:52.505Z,11.40
2022-09-28T17:59:22.198Z,11.40
2022-09-28T18:01:51.031Z,11.30
2022-09-28T18:04:46.965Z,11.30
2022-09-28T18:07:08.917Z,11.30
2022-09-28T18:09:39.163Z,11.20
2022-09-28T18:12:08.536Z,11.20
2022-09-28T18:14:37.278Z,11.20
2022-09-28T18:17:06.181Z,11.20
2022-09-28T18:19:34.900Z,11.20
2022-09-28T18:22:03.606Z,11.20
2022-09-28T18:24:32.729Z,11.10
2022-09-28T18:27:03.360Z,11.10
2022-09-28T18:29:33.465Z,11.10
2022-09-28T18:32:06.857Z,11.10
2022-09-28T18:34:38.299Z,11.10
2022-09-28T18:37:07.568Z,11.10
2022-09-28T18:39:37.484Z,11.10
2022-09-28T18:42:07.861Z,11.10
2022-09-28T18:44:36.671Z,11.00
2022-09-28T18:47:05.811Z,11.00
2022-09-28T18:49:34.996Z,10.90
2022-09-28T18:52:06.257Z,10.90
2022-09-28T18:54:35.229Z,10.90
2022-09-28T18:57:05.527Z,10.80
2022-09-28T18:59:36.156Z,10.70
2022-09-28T19:02:05.749Z,10.60
2022-09-28T19:04:34.869Z,10.50
2022-09-28T19:07:03.799Z,10.50
2022-09-28T19:09:33.258Z,10.40
2022-09-28T19:12:03.120Z,10.40
2022-09-28T19:14:31.915Z,10.30
2022-09-28T19:17:02.116Z,10.20
2022-09-28T19:19:31.944Z,10.20
2022-09-28T19:22:00.979Z,10.10
2022-09-28T19:24:29.711Z,10.10
2022-09-28T19:26:59.024Z,10.10
2022-09-28T19:29:27.849Z,10.00
2022-09-28T19:31:56.877Z,10.00
2022-09-28T19:34:28.144Z,10.00
2022-09-28T19:36:57.202Z,9.90
2022-09-28T19:39:25.812Z,9.90
2022-09-28T19:41:57.367Z,9.80
2022-09-28T19:44:28.228Z,9.70
2022-09-28T19:47:04.412Z,9.70
2022-09-28T19:49:37.070Z,9.70
2022-09-28T19:52:16.503Z,9.70
2022-09-28T19:54:54.570Z,9.70
2022-09-28T19:57:24.838Z,9.70
2022-09-28T19:59:59.286Z,9.70
2022-09-28T20:02:30.116Z,9.70
2022-09-28T20:05:00.329Z,9.70
2022-09-28T20:07:33.079Z,9.70
2022-09-28T20:10:02.252Z,9.80
2022-09-28T20:12:30.992Z,9.70
2022-09-28T20:15:00.018Z,9.70
2022-09-28T20:17:28.784Z,9.70
2022-09-28T20:19:59.671Z,9.70
2022-09-28T20:22:31.355Z,9.60
2022-09-28T20:25:02.035Z,9.60
2022-09-28T20:27:30.633Z,9.60
2022-09-28T20:29:59.802Z,9.60
2022-09-28T20:32:28.653Z,9.60
2022-09-28T20:34:57.457Z,9.60
2022-09-28T20:37:28.734Z,9.60
2022-09-28T20:40:01.171Z,9.50
2022-09-28T20:42:32.243Z,9.60
2022-09-28T20:45:00.838Z,9.50
2022-09-28T20:47:29.788Z,9.40
2022-09-28T20:49:58.510Z,9.40
2022-09-28T20:52:27.120Z,9.30
2022-09-28T20:54:55.737Z,9.30
2022-09-28T20:57:26.380Z,9.20
2022-09-28T20:59:55.081Z,9.20
2022-09-28T21:02:23.955Z,9.20
2022-09-28T21:04:53.702Z,9.10
2022-09-28T21:07:22.720Z,9.10
2022-09-28T21:09:53.814Z,9.10
2022-09-28T21:12:22.917Z,9.00
2022-09-28T21:14:55.953Z,9.00
2022-09-28T21:17:24.551Z,9.00
2022-09-28T21:19:53.357Z,8.90
2022-09-28T21:22:22.018Z,8.90
2022-09-28T21:24:50.727Z,8.90
2022-09-28T21:27:19.502Z,8.90
2022-09-28T21:29:48.448Z,8.90
2022-09-28T21:32:18.453Z,8.90
2022-09-28T21:34:47.030Z,8.90
2022-09-28T21:37:16.960Z,8.90
2022-09-28T21:39:45.780Z,8.80
2022-09-28T21:42:14.334Z,8.80
2022-09-28T21:44:43.285Z,8.80
2022-09-28T21:47:11.926Z,8.80
2022-09-28T21:49:42.140Z,8.70
2022-09-28T21:52:10.770Z,8.70
2022-09-28T21:54:39.796Z,8.70
2022-09-28T21:57:09.057Z,8.70
2022-09-28T21:59:38.784Z,8.70
2022-09-28T22:02:07.406Z,8.60
2022-09-28T22:04:36.668Z,8.60
2022-09-28T22:07:06.730Z,8.60
2022-09-28T22:09:35.274Z,8.60
2022-09-28T22:12:04.034Z,8.50
2022-09-28T22:14:33.025Z,8.50
2022-09-28T22:17:01.520Z,8.40
2022-09-28T22:19:30.101Z,8.40
2022-09-28T22:21:58.828Z,8.40
2022-09-28T22:24:28.952Z,8.30
2022-09-28T22:26:57.557Z,8.30
2022-09-28T22:29:26.240Z,8.20
2022-09-28T22:32:00.309Z,8.20
2022-09-28T22:34:30.921Z,8.10
2022-09-28T22:36:59.613Z,8.10
2022-09-28T22:39:33.127Z,8.00
2022-09-28T22:42:04.110Z,8.00
2022-09-28T22:44:33.715Z,7.90
2022-09-28T22:47:02.719Z,7.80
2022-09-28T22:49:31.753Z,7.70
2022-09-28T22:52:00.197Z,7.70
2022-09-28T22:54:30.439Z,7.60
2022-09-28T22:56:59.443Z,7.60
2022-09-28T22:59:28.021Z,7.50
2022-09-28T23:01:56.595Z,7.50
2022-09-28T23:04:25.246Z,7.50
2022-09-28T23:06:53.824Z,7.50
2022-09-28T23:09:22.338Z,7.40
2022-09-28T23:11:52.712Z,7.30
2022-09-28T23:14:21.328Z,7.30
2022-09-28T23:16:49.839Z,7.30
2022-09-28T23:19:18.765Z,7.30
2022-09-28T23:21:47.439Z,7.30
2022-09-28T23:24:16.066Z,7.20
2022-09-28T23:26:44.730Z,7.20
2022-09-28T23:29:14.981Z,7.20
2022-09-28T23:31:44.172Z,7.20
2022-09-28T23:34:12.889Z,7.20
2022-09-28T23:36:41.518Z,7.10
2022-09-28T23:39:11.844Z,7.10
2022-09-28T23:41:41.722Z,7.10
2022-09-28T23:44:10.510Z,7.10
2022-09-28T23:46:40.407Z,7.00
2022-09-28T23:49:09.771Z,6.90
2022-09-28T23:51:38.300Z,6.90
2022-09-28T23:54:07.322Z,6.80
2022-09-28T23:56:36.174Z,6.80
2022-09-28T23:59:04.663Z,6.80
